sensor_id;sensor_type;location;lat;lon;timestamp;pressure;altitude;pressure_sealevel;temperature;humidity
28648;BME280;17137;51.494;-0.262;2022-07-17T00:00:17;49698.90;;;-145.72;36.66
28648;BME280;17137;51.494;-0.262;2022-07-17T00:00:48;49692.00;;;-145.72;36.68
28648;BME280;17137;51.494;-0.262;2022-07-17T00:01:18;49698.90;;;-145.72;36.72
28648;BME280;17137;51.494;-0.262;2022-07-17T00:01:49;49695.57;;;-145.72;36.63
28648;BME280;17137;51.494;-0.262;2022-07-17T00:02:19;49697.05;;;-145.72;36.65
28648;BME280;17137;51.494;-0.262;2022-07-17T00:02:49;49696.07;;;-145.72;36.63
28648;BME280;17137;51.494;-0.262;2022-07-17T00:03:49;49695.45;;;-145.72;36.61
28648;BME280;17137;51.494;-0.262;2022-07-17T00:04:19;49692.25;;;-145.72;36.61
28648;BME280;17137;51.494;-0.262;2022-07-17T00:04:50;49697.18;;;-145.72;36.58
28648;BME280;17137;51.494;-0.262;2022-07-17T00:05:21;49696.07;;;-145.72;36.50
28648;BME280;17137;51.494;-0.262;2022-07-17T00:05:51;49687.32;;;-145.72;36.47
28648;BME280;17137;51.494;-0.262;2022-07-17T00:06:21;49692.00;;;-145.72;36.50
28648;BME280;17137;51.494;-0.262;2022-07-17T00:06:52;49691.01;;;-145.72;36.59
28648;BME280;17137;51.494;-0.262;2022-07-17T00:07:22;49688.43;;;-145.72;36.56
28648;BME280;17137;51.494;-0.262;2022-07-17T00:07:52;49693.48;;;-145.72;36.58
28648;BME280;17137;51.494;-0.262;2022-07-17T00:08:23;49694.47;;;-145.72;36.47
28648;BME280;17137;51.494;-0.262;2022-07-17T00:08:54;49692.74;;;-145.72;36.70
28648;BME280;17137;51.494;-0.262;2022-07-17T00:09:24;49694.71;;;-145.72;36.76
28648;BME280;17137;51.494;-0.262;2022-07-17T00:09:54;49700.50;;;-145.72;36.77
28648;BME280;17137;51.494;-0.262;2022-07-17T00:10:25;49701.86;;;-145.72;36.86
28648;BME280;17137;51.494;-0.262;2022-07-17T00:10:55;49695.70;;;-145.72;36.81
28648;BME280;17137;51.494;-0.262;2022-07-17T00:11:25;49693.73;;;-145.72;36.73
28648;BME280;17137;51.494;-0.262;2022-07-17T00:11:56;49692.49;;;-145.72;36.72
28648;BME280;17137;51.494;-0.262;2022-07-17T00:12:26;49704.57;;;-145.72;36.91
28648;BME280;17137;51.494;-0.262;2022-07-17T00:12:56;49697.30;;;-145.72;36.81
28648;BME280;17137;51.494;-0.262;2022-07-17T00:13:27;49691.01;;;-145.72;36.57
28648;BME280;17137;51.494;-0.262;2022-07-17T00:13:57;49696.31;;;-145.72;36.57
28648;BME280;17137;51.494;-0.262;2022-07-17T00:14:27;49704.82;;;-145.72;36.65
28648;BME280;17137;51.494;-0.262;2022-07-17T00:14:58;49695.57;;;-145.72;36.45
28648;BME280;17137;51.494;-0.262;2022-07-17T00:15:29;49701.61;;;-145.72;36.47
28648;BME280;17137;51.494;-0.262;2022-07-17T00:15:59;49689.17;;;-145.72;36.41
28648;BME280;17137;51.494;-0.262;2022-07-17T00:16:30;49697.92;;;-145.72;36.39
28648;BME280;17137;51.494;-0.262;2022-07-17T00:17:05;49692.25;;;-145.72;36.42
28648;BME280;17137;51.494;-0.262;2022-07-17T00:17:36;49693.36;;;-145.72;36.25
28648;BME280;17137;51.494;-0.262;2022-07-17T00:18:07;49686.33;;;-145.72;36.24
28648;BME280;17137;51.494;-0.262;2022-07-17T00:18:38;49686.95;;;-145.72;36.22
28648;BME280;17137;51.494;-0.262;2022-07-17T00:19:08;49690.77;;;-145.72;36.26
28648;BME280;17137;51.494;-0.262;2022-07-17T00:19:38;49684.98;;;-145.72;36.20
28648;BME280;17137;51.494;-0.262;2022-07-17T00:20:10;49688.67;;;-145.72;36.16
28648;BME280;17137;51.494;-0.262;2022-07-17T00:20:41;49678.07;;;-145.72;36.05
28648;BME280;17137;51.494;-0.262;2022-07-17T00:21:11;49680.05;;;-145.72;36.03
28648;BME280;17137;51.494;-0.262;2022-07-17T00:21:42;49682.76;;;-145.72;36.04
28648;BME280;17137;51.494;-0.262;2022-07-17T00:22:12;49696.81;;;-145.72;36.11
28648;BME280;17137;51.494;-0.262;2022-07-17T00:22:43;49694.71;;;-145.72;36.23
28648;BME280;17137;51.494;-0.262;2022-07-17T00:23:13;49697.30;;;-145.72;36.20
28648;BME280;17137;51.494;-0.262;2022-07-17T00:23:44;49697.92;;;-145.72;36.29
28648;BME280;17137;51.494;-0.262;2022-07-17T00:24:14;49703.83;;;-145.72;36.31
28648;BME280;17137;51.494;-0.262;2022-07-17T00:24:45;49697.67;;;-145.72;36.26
28648;BME280;17137;51.494;-0.262;2022-07-17T00:25:15;49697.79;;;-145.72;36.21
28648;BME280;17137;51.494;-0.262;2022-07-17T00:25:45;49686.95;;;-145.72;36.20
28648;BME280;17137;51.494;-0.262;2022-07-17T00:26:16;49698.16;;;-145.72;36.21
28648;BME280;17137;51.494;-0.262;2022-07-17T00:26:46;49693.85;;;-145.72;36.22
28648;BME280;17137;51.494;-0.262;2022-07-17T00:27:17;49708.27;;;-145.72;36.39
28648;BME280;17137;51.494;-0.262;2022-07-17T00:27:47;49696.93;;;-145.72;36.32
28648;BME280;17137;51.494;-0.262;2022-07-17T00:28:17;49703.22;;;-145.72;36.40
28648;BME280;17137;51.494;-0.262;2022-07-17T00:28:48;49709.75;;;-145.72;36.50
28648;BME280;17137;51.494;-0.262;2022-07-17T00:29:18;49710.98;;;-145.72;36.51
28648;BME280;17137;51.494;-0.262;2022-07-17T00:29:49;49705.19;;;-145.72;36.53
28648;BME280;17137;51.494;-0.262;2022-07-17T00:30:20;49720.59;;;-145.72;36.59
28648;BME280;17137;51.494;-0.262;2022-07-17T00:30:51;49704.08;;;-145.72;36.65
28648;BME280;17137;51.494;-0.262;2022-07-17T00:31:21;49721.70;;;-145.72;36.62
28648;BME280;17137;51.494;-0.262;2022-07-17T00:31:52;49725.89;;;-145.72;36.60
28648;BME280;17137;51.494;-0.262;2022-07-17T00:32:22;49704.70;;;-145.72;36.62
28648;BME280;17137;51.494;-0.262;2022-07-17T00:32:53;49713.57;;;-145.72;36.54
28648;BME280;17137;51.494;-0.262;2022-07-17T00:33:23;49709.13;;;-145.72;36.57
28648;BME280;17137;51.494;-0.262;2022-07-17T00:33:53;49706.79;;;-145.72;36.41
28648;BME280;17137;51.494;-0.262;2022-07-17T00:34:24;49710.98;;;-145.72;36.70
28648;BME280;17137;51.494;-0.262;2022-07-17T00:34:54;49716.90;;;-145.72;36.70
28648;BME280;17137;51.494;-0.262;2022-07-17T00:35:24;49706.67;;;-145.72;36.69
28648;BME280;17137;51.494;-0.262;2022-07-17T00:35:54;49701.61;;;-145.72;36.60
28648;BME280;17137;51.494;-0.262;2022-07-17T00:36:25;49696.19;;;-145.72;36.54
28648;BME280;17137;51.494;-0.262;2022-07-17T00:36:55;49699.64;;;-145.72;36.44
28648;BME280;17137;51.494;-0.262;2022-07-17T00:37:26;49700.50;;;-145.72;36.42
28648;BME280;17137;51.494;-0.262;2022-07-17T00:37:56;49697.05;;;-145.72;36.33
28648;BME280;17137;51.494;-0.262;2022-07-17T00:38:26;49697.05;;;-145.72;36.43
28648;BME280;17137;51.494;-0.262;2022-07-17T00:38:57;49699.89;;;-145.72;36.49
28648;BME280;17137;51.494;-0.262;2022-07-17T00:39:27;49701.86;;;-145.72;36.45
28648;BME280;17137;51.494;-0.262;2022-07-17T00:39:58;49693.73;;;-145.72;36.59
28648;BME280;17137;51.494;-0.262;2022-07-17T00:40:28;49703.71;;;-145.72;36.66
28648;BME280;17137;51.494;-0.262;2022-07-17T00:40:59;49701.86;;;-145.72;36.67
28648;BME280;17137;51.494;-0.262;2022-07-17T00:41:29;49711.35;;;-145.72;36.69
28648;BME280;17137;51.494;-0.262;2022-07-17T00:42:00;49707.90;;;-145.72;36.78
28648;BME280;17137;51.494;-0.262;2022-07-17T00:42:30;49704.94;;;-145.72;36.75
28648;BME280;17137;51.494;-0.262;2022-07-17T00:43:00;49702.35;;;-145.72;36.83
28648;BME280;17137;51.494;-0.262;2022-07-17T00:43:31;49709.38;;;-145.72;36.81
28648;BME280;17137;51.494;-0.262;2022-07-17T00:44:06;49705.31;;;-145.72;36.86
28648;BME280;17137;51.494;-0.262;2022-07-17T00:44:37;49721.33;;;-145.72;37.22
28648;BME280;17137;51.494;-0.262;2022-07-17T00:45:08;49713.57;;;-145.72;37.11
28648;BME280;17137;51.494;-0.262;2022-07-17T00:45:39;49704.45;;;-145.72;37.01
28648;BME280;17137;51.494;-0.262;2022-07-17T00:46:09;49709.01;;;-145.72;37.01
28648;BME280;17137;51.494;-0.262;2022-07-17T00:46:40;49717.88;;;-145.72;37.13
28648;BME280;17137;51.494;-0.262;2022-07-17T00:47:13;49719.86;;;-145.72;37.19
28648;BME280;17137;51.494;-0.262;2022-07-17T00:47:52;49720.84;;;-145.72;36.99
28648;BME280;17137;51.494;-0.262;2022-07-17T00:48:23;49702.48;;;-145.72;37.03
28648;BME280;17137;51.494;-0.262;2022-07-17T00:48:53;49710.12;;;-145.72;37.00
28648;BME280;17137;51.494;-0.262;2022-07-17T00:49:28;49709.13;;;-145.72;37.07
28648;BME280;17137;51.494;-0.262;2022-07-17T00:49:59;49723.31;;;-145.72;37.37
28648;BME280;17137;51.494;-0.262;2022-07-17T00:50:31;49725.65;;;-145.72;37.55
28648;BME280;17137;51.494;-0.262;2022-07-17T00:51:02;49716.03;;;-145.72;37.47
28648;BME280;17137;51.494;-0.262;2022-07-17T00:51:33;49709.13;;;-145.72;37.40
28648;BME280;17137;51.494;-0.262;2022-07-17T00:52:04;49715.91;;;-145.72;37.55
28648;BME280;17137;51.494;-0.262;2022-07-17T00:52:35;49722.81;;;-145.72;37.57
28648;BME280;17137;51.494;-0.262;2022-07-17T00:53:06;49719.49;;;-145.72;37.55
28648;BME280;17137;51.494;-0.262;2022-07-17T00:53:37;49727.74;;;-145.72;37.57
28648;BME280;17137;51.494;-0.262;2022-07-17T00:54:12;49719.61;;;-145.72;37.38
28648;BME280;17137;51.494;-0.262;2022-07-17T00:57:23;49730.95;;;-145.72;37.70
28648;BME280;17137;51.494;-0.262;2022-07-17T00:57:56;49727.25;;;-145.72;37.73
28648;BME280;17137;51.494;-0.262;2022-07-17T00:58:29;49723.68;;;-145.72;37.73
28648;BME280;17137;51.494;-0.262;2022-07-17T00:59:00;49727.25;;;-145.72;37.96
28648;BME280;17137;51.494;-0.262;2022-07-17T00:59:32;49725.77;;;-145.72;37.99
28648;BME280;17137;51.494;-0.262;2022-07-17T01:00:04;49712.71;;;-145.72;37.90
28648;BME280;17137;51.494;-0.262;2022-07-17T01:00:35;49727.74;;;-145.72;37.92
28648;BME280;17137;51.494;-0.262;2022-07-17T01:01:06;49731.81;;;-145.72;38.23
28648;BME280;17137;51.494;-0.262;2022-07-17T01:01:36;49716.16;;;-145.72;38.16
28648;BME280;17137;51.494;-0.262;2022-07-17T01:02:09;49727.00;;;-145.72;38.30
28648;BME280;17137;51.494;-0.262;2022-07-17T01:02:43;49732.67;;;-145.72;38.43
28648;BME280;17137;51.494;-0.262;2022-07-17T01:03:14;49727.62;;;-145.72;38.51
28648;BME280;17137;51.494;-0.262;2022-07-17T01:03:45;49718.01;;;-145.72;38.66
28648;BME280;17137;51.494;-0.262;2022-07-17T01:04:15;49724.79;;;-145.72;38.56
28648;BME280;17137;51.494;-0.262;2022-07-17T01:04:45;49730.58;;;-145.72;38.73
28648;BME280;17137;51.494;-0.262;2022-07-17T01:05:16;49719.61;;;-145.72;38.85
28648;BME280;17137;51.494;-0.262;2022-07-17T01:05:47;49726.63;;;-145.72;38.87
28648;BME280;17137;51.494;-0.262;2022-07-17T01:06:17;49730.95;;;-145.72;38.75
28648;BME280;17137;51.494;-0.262;2022-07-17T01:06:48;49731.56;;;-145.72;38.94
28648;BME280;17137;51.494;-0.262;2022-07-17T01:07:18;49731.93;;;-145.72;39.13
28648;BME280;17137;51.494;-0.262;2022-07-17T01:07:50;49731.19;;;-145.72;39.30
28648;BME280;17137;51.494;-0.262;2022-07-17T01:08:21;49726.51;;;-145.72;39.22
28648;BME280;17137;51.494;-0.262;2022-07-17T01:08:51;49730.21;;;-145.72;39.07
28648;BME280;17137;51.494;-0.262;2022-07-17T01:09:22;49735.02;;;-145.72;38.95
28648;BME280;17137;51.494;-0.262;2022-07-17T01:09:53;49727.74;;;-145.72;39.08
28648;BME280;17137;51.494;-0.262;2022-07-17T01:10:23;49733.29;;;-145.72;39.19
28648;BME280;17137;51.494;-0.262;2022-07-17T01:10:59;49736.49;;;-145.72;39.17
28648;BME280;17137;51.494;-0.262;2022-07-17T01:11:31;49729.35;;;-145.72;39.13
28648;BME280;17137;51.494;-0.262;2022-07-17T01:12:02;49735.38;;;-145.72;39.10
28648;BME280;17137;51.494;-0.262;2022-07-17T01:12:33;49731.19;;;-145.72;39.11
28648;BME280;17137;51.494;-0.262;2022-07-17T01:13:04;49724.29;;;-145.72;39.01
28648;BME280;17137;51.494;-0.262;2022-07-17T01:13:35;49725.15;;;-145.72;38.88
28648;BME280;17137;51.494;-0.262;2022-07-17T01:14:05;49722.44;;;-145.72;38.76
28648;BME280;17137;51.494;-0.262;2022-07-17T01:14:36;49725.15;;;-145.72;38.65
28648;BME280;17137;51.494;-0.262;2022-07-17T01:15:09;49718.38;;;-145.72;38.62
28648;BME280;17137;51.494;-0.262;2022-07-17T01:15:40;49721.95;;;-145.72;38.64
28648;BME280;17137;51.494;-0.262;2022-07-17T01:16:11;49727.74;;;-145.72;38.49
28648;BME280;17137;51.494;-0.262;2022-07-17T01:16:43;49721.58;;;-145.72;38.45
28648;BME280;17137;51.494;-0.262;2022-07-17T01:17:13;49726.63;;;-145.72;38.32
28648;BME280;17137;51.494;-0.262;2022-07-17T01:17:45;49737.48;;;-145.72;38.46
28648;BME280;17137;51.494;-0.262;2022-07-17T01:18:15;49716.77;;;-145.72;38.36
28648;BME280;17137;51.494;-0.262;2022-07-17T01:18:46;49733.17;;;-145.72;38.29
28648;BME280;17137;51.494;-0.262;2022-07-17T01:19:16;49726.63;;;-145.72;38.52
28648;BME280;17137;51.494;-0.262;2022-07-17T01:19:47;49731.81;;;-145.72;38.77
28648;BME280;17137;51.494;-0.262;2022-07-17T01:20:18;49740.68;;;-145.72;38.94
28648;BME280;17137;51.494;-0.262;2022-07-17T01:20:49;49731.07;;;-145.72;38.87
28648;BME280;17137;51.494;-0.262;2022-07-17T01:21:20;49730.45;;;-145.72;38.99
28648;BME280;17137;51.494;-0.262;2022-07-17T01:21:50;49730.45;;;-145.72;38.93
28648;BME280;17137;51.494;-0.262;2022-07-17T01:22:21;49728.48;;;-145.72;38.91
28648;BME280;17137;51.494;-0.262;2022-07-17T01:22:52;49727.37;;;-145.72;38.83
28648;BME280;17137;51.494;-0.262;2022-07-17T01:23:22;49735.51;;;-145.72;38.97
28648;BME280;17137;51.494;-0.262;2022-07-17T01:23:52;49739.82;;;-145.72;38.89
28648;BME280;17137;51.494;-0.262;2022-07-17T01:24:23;49727.25;;;-145.72;38.82
28648;BME280;17137;51.494;-0.262;2022-07-17T01:24:53;49733.78;;;-145.72;38.75
28648;BME280;17137;51.494;-0.262;2022-07-17T01:25:24;49743.52;;;-145.72;38.79
28648;BME280;17137;51.494;-0.262;2022-07-17T01:25:55;49736.86;;;-145.72;38.67
28648;BME280;17137;51.494;-0.262;2022-07-17T01:26:25;49725.28;;;-145.72;38.55
28648;BME280;17137;51.494;-0.262;2022-07-17T01:26:56;49723.68;;;-145.72;38.33
28648;BME280;17137;51.494;-0.262;2022-07-17T01:27:26;49728.98;;;-145.72;38.26
28648;BME280;17137;51.494;-0.262;2022-07-17T01:27:57;49731.32;;;-145.72;38.47
28648;BME280;17137;51.494;-0.262;2022-07-17T01:28:28;49731.93;;;-145.72;38.53
28648;BME280;17137;51.494;-0.262;2022-07-17T01:28:58;49733.54;;;-145.72;38.76
28648;BME280;17137;51.494;-0.262;2022-07-17T01:29:29;49733.41;;;-145.72;38.68
28648;BME280;17137;51.494;-0.262;2022-07-17T01:30:00;49742.66;;;-145.72;38.69
28648;BME280;17137;51.494;-0.262;2022-07-17T01:30:31;49743.15;;;-145.72;38.81
28648;BME280;17137;51.494;-0.262;2022-07-17T01:31:01;49738.59;;;-145.72;38.85
28648;BME280;17137;51.494;-0.262;2022-07-17T01:31:32;49739.70;;;-145.72;38.93
28648;BME280;17137;51.494;-0.262;2022-07-17T01:32:03;49744.88;;;-145.72;38.89
28648;BME280;17137;51.494;-0.262;2022-07-17T01:32:34;49745.24;;;-145.72;39.23
28648;BME280;17137;51.494;-0.262;2022-07-17T01:33:05;49751.04;;;-145.72;39.31
28648;BME280;17137;51.494;-0.262;2022-07-17T01:33:35;49749.81;;;-145.72;39.33
28648;BME280;17137;51.494;-0.262;2022-07-17T01:34:06;49749.44;;;-145.72;39.46
28648;BME280;17137;51.494;-0.262;2022-07-17T01:34:37;49748.82;;;-145.72;39.52
28648;BME280;17137;51.494;-0.262;2022-07-17T01:35:09;49758.80;;;-145.72;39.64
28648;BME280;17137;51.494;-0.262;2022-07-17T01:35:41;49753.26;;;-145.72;39.60
28648;BME280;17137;51.494;-0.262;2022-07-17T01:36:11;49756.83;;;-145.72;39.70
28648;BME280;17137;51.494;-0.262;2022-07-17T01:36:54;49753.87;;;-145.72;39.66
28648;BME280;17137;51.494;-0.262;2022-07-17T01:37:24;49763.61;;;-145.72;39.52
28648;BME280;17137;51.494;-0.262;2022-07-17T01:40:03;49754.61;;;-145.72;39.54
28648;BME280;17137;51.494;-0.262;2022-07-17T01:40:34;49751.28;;;-145.72;39.47
28648;BME280;17137;51.494;-0.262;2022-07-17T01:41:05;49750.54;;;-145.72;39.40
28648;BME280;17137;51.494;-0.262;2022-07-17T01:41:35;49756.58;;;-145.72;39.32
28648;BME280;17137;51.494;-0.262;2022-07-17T01:42:06;49757.94;;;-145.72;39.30
28648;BME280;17137;51.494;-0.262;2022-07-17T01:42:36;49738.71;;;-145.72;39.23
28648;BME280;17137;51.494;-0.262;2022-07-17T01:43:07;49759.54;;;-145.72;39.26
28648;BME280;17137;51.494;-0.262;2022-07-17T01:43:42;49749.93;;;-145.72;39.52
28648;BME280;17137;51.494;-0.262;2022-07-17T01:44:13;49745.49;;;-145.72;39.48
28648;BME280;17137;51.494;-0.262;2022-07-17T01:44:43;49752.39;;;-145.72;39.36
28648;BME280;17137;51.494;-0.262;2022-07-17T01:45:15;49752.15;;;-145.72;39.27
28648;BME280;17137;51.494;-0.262;2022-07-17T01:45:46;49745.98;;;-145.72;39.45
28648;BME280;17137;51.494;-0.262;2022-07-17T01:46:17;49752.02;;;-145.72;39.37
28648;BME280;17137;51.494;-0.262;2022-07-17T01:46:47;49745.12;;;-145.72;39.15
28648;BME280;17137;51.494;-0.262;2022-07-17T01:47:18;49751.65;;;-145.72;39.08
28648;BME280;17137;51.494;-0.262;2022-07-17T01:47:49;49739.95;;;-145.72;39.11
28648;BME280;17137;51.494;-0.262;2022-07-17T01:48:24;49749.56;;;-145.72;38.96
28648;BME280;17137;51.494;-0.262;2022-07-17T01:48:55;49747.09;;;-145.72;38.89
28648;BME280;17137;51.494;-0.262;2022-07-17T01:49:26;49751.65;;;-145.72;38.92
28648;BME280;17137;51.494;-0.262;2022-07-17T01:49:57;49750.30;;;-145.72;38.97
28648;BME280;17137;51.494;-0.262;2022-07-17T01:50:28;49746.97;;;-145.72;38.95
28648;BME280;17137;51.494;-0.262;2022-07-17T01:50:59;49749.68;;;-145.72;39.02
28648;BME280;17137;51.494;-0.262;2022-07-17T01:51:30;49737.85;;;-145.72;38.99
28648;BME280;17137;51.494;-0.262;2022-07-17T01:52:00;49745.37;;;-145.72;39.10
28648;BME280;17137;51.494;-0.262;2022-07-17T01:52:30;49750.54;;;-145.72;38.85
28648;BME280;17137;51.494;-0.262;2022-07-17T01:53:01;49748.45;;;-145.72;38.65
28648;BME280;17137;51.494;-0.262;2022-07-17T01:53:31;49736.12;;;-145.72;38.48
28648;BME280;17137;51.494;-0.262;2022-07-17T01:54:02;49740.44;;;-145.72;38.47
28648;BME280;17137;51.494;-0.262;2022-07-17T01:54:33;49738.34;;;-145.72;38.69
28648;BME280;17137;51.494;-0.262;2022-07-17T01:55:05;49761.14;;;-145.72;38.91
28648;BME280;17137;51.494;-0.262;2022-07-17T01:55:35;49759.91;;;-145.72;39.10
28648;BME280;17137;51.494;-0.262;2022-07-17T01:56:06;49755.35;;;-145.72;39.14
28648;BME280;17137;51.494;-0.262;2022-07-17T01:56:36;49753.13;;;-145.72;38.92
28648;BME280;17137;51.494;-0.262;2022-07-17T01:57:07;49748.57;;;-145.72;38.75
28648;BME280;17137;51.494;-0.262;2022-07-17T01:57:37;49759.30;;;-145.72;38.52
28648;BME280;17137;51.494;-0.262;2022-07-17T01:58:08;49756.71;;;-145.72;38.64
28648;BME280;17137;51.494;-0.262;2022-07-17T01:58:38;49753.63;;;-145.72;38.63
28648;BME280;17137;51.494;-0.262;2022-07-17T01:59:09;49756.95;;;-145.72;38.66
28648;BME280;17137;51.494;-0.262;2022-07-17T01:59:40;49763.24;;;-145.72;38.70
28648;BME280;17137;51.494;-0.262;2022-07-17T02:00:13;49761.51;;;-145.72;38.73
28648;BME280;17137;51.494;-0.262;2022-07-17T02:00:44;49753.13;;;-145.72;38.53
28648;BME280;17137;51.494;-0.262;2022-07-17T02:01:15;49750.05;;;-145.72;38.43
28648;BME280;17137;51.494;-0.262;2022-07-17T02:01:45;49756.09;;;-145.72;38.33
28648;BME280;17137;51.494;-0.262;2022-07-17T02:02:15;49753.63;;;-145.72;38.24
28648;BME280;17137;51.494;-0.262;2022-07-17T02:02:46;49749.93;;;-145.72;38.25
28648;BME280;17137;51.494;-0.262;2022-07-17T02:03:16;49750.18;;;-145.72;38.14
28648;BME280;17137;51.494;-0.262;2022-07-17T02:03:47;49745.74;;;-145.72;38.07
28648;BME280;17137;51.494;-0.262;2022-07-17T02:04:17;49760.90;;;-145.72;38.12
28648;BME280;17137;51.494;-0.262;2022-07-17T02:04:48;49745.49;;;-145.72;37.98
28648;BME280;17137;51.494;-0.262;2022-07-17T02:05:19;49754.00;;;-145.72;38.10
28648;BME280;17137;51.494;-0.262;2022-07-17T02:05:49;49751.65;;;-145.72;38.12
28648;BME280;17137;51.494;-0.262;2022-07-17T02:06:20;49750.67;;;-145.72;38.18
28648;BME280;17137;51.494;-0.262;2022-07-17T02:06:53;49750.18;;;-145.72;38.18
28648;BME280;17137;51.494;-0.262;2022-07-17T02:07:23;49755.84;;;-145.72;38.16
28648;BME280;17137;51.494;-0.262;2022-07-17T02:07:53;49753.38;;;-145.72;38.15
28648;BME280;17137;51.494;-0.262;2022-07-17T02:08:24;49751.53;;;-145.72;38.14
28648;BME280;17137;51.494;-0.262;2022-07-17T02:08:54;49752.02;;;-145.72;38.02
28648;BME280;17137;51.494;-0.262;2022-07-17T02:09:25;49749.93;;;-145.72;38.26
28648;BME280;17137;51.494;-0.262;2022-07-17T02:09:55;49764.60;;;-145.72;38.39
28648;BME280;17137;51.494;-0.262;2022-07-17T02:10:26;49756.46;;;-145.72;38.35
28648;BME280;17137;51.494;-0.262;2022-07-17T02:10:56;49767.43;;;-145.72;38.55
28648;BME280;17137;51.494;-0.262;2022-07-17T02:11:27;49758.19;;;-145.72;38.35
28648;BME280;17137;51.494;-0.262;2022-07-17T02:11:57;49755.11;;;-145.72;38.26
28648;BME280;17137;51.494;-0.262;2022-07-17T02:12:28;49754.37;;;-145.72;38.26
28648;BME280;17137;51.494;-0.262;2022-07-17T02:12:58;49753.38;;;-145.72;38.33
28648;BME280;17137;51.494;-0.262;2022-07-17T02:13:29;49754.24;;;-145.72;38.27
28648;BME280;17137;51.494;-0.262;2022-07-17T02:13:59;49758.80;;;-145.72;38.37
28648;BME280;17137;51.494;-0.262;2022-07-17T02:14:30;49755.23;;;-145.72;38.27
28648;BME280;17137;51.494;-0.262;2022-07-17T02:15:00;49756.58;;;-145.72;38.58
28648;BME280;17137;51.494;-0.262;2022-07-17T02:15:31;49762.50;;;-145.72;38.57
28648;BME280;17137;51.494;-0.262;2022-07-17T02:16:02;49754.24;;;-145.72;38.47
28648;BME280;17137;51.494;-0.262;2022-07-17T02:16:33;49747.71;;;-145.72;38.40
28648;BME280;17137;51.494;-0.262;2022-07-17T02:17:03;49763.36;;;-145.72;38.34
28648;BME280;17137;51.494;-0.262;2022-07-17T02:17:34;49742.66;;;-145.72;38.18
28648;BME280;17137;51.494;-0.262;2022-07-17T02:18:04;49752.15;;;-145.72;38.24
28648;BME280;17137;51.494;-0.262;2022-07-17T02:18:36;49753.75;;;-145.72;38.34
28648;BME280;17137;51.494;-0.262;2022-07-17T02:19:07;49761.39;;;-145.72;38.52
28648;BME280;17137;51.494;-0.262;2022-07-17T02:19:37;49764.60;;;-145.72;38.56
28648;BME280;17137;51.494;-0.262;2022-07-17T02:20:09;49764.10;;;-145.72;38.57
28648;BME280;17137;51.494;-0.262;2022-07-17T02:20:40;49767.80;;;-145.72;38.73
28648;BME280;17137;51.494;-0.262;2022-07-17T02:21:10;49758.68;;;-145.72;38.63
28648;BME280;17137;51.494;-0.262;2022-07-17T02:21:41;49754.61;;;-145.72;38.42
28648;BME280;17137;51.494;-0.262;2022-07-17T02:22:11;49759.67;;;-145.72;38.46
28648;BME280;17137;51.494;-0.262;2022-07-17T02:22:41;49762.62;;;-145.72;38.48
28648;BME280;17137;51.494;-0.262;2022-07-17T02:23:12;49764.84;;;-145.72;38.67
28648;BME280;17137;51.494;-0.262;2022-07-17T02:23:42;49763.24;;;-145.72;38.66
28648;BME280;17137;51.494;-0.262;2022-07-17T02:24:13;49759.79;;;-145.72;38.64
28648;BME280;17137;51.494;-0.262;2022-07-17T02:24:43;49767.80;;;-145.72;38.76
28648;BME280;17137;51.494;-0.262;2022-07-17T02:25:14;49784.93;;;-145.72;39.17
28648;BME280;17137;51.494;-0.262;2022-07-17T02:25:44;49782.84;;;-145.72;39.26
28648;BME280;17137;51.494;-0.262;2022-07-17T02:26:15;49769.28;;;-145.72;39.07
28648;BME280;17137;51.494;-0.262;2022-07-17T02:26:45;49772.36;;;-145.72;39.05
28648;BME280;17137;51.494;-0.262;2022-07-17T02:27:15;49767.55;;;-145.72;39.20
28648;BME280;17137;51.494;-0.262;2022-07-17T02:27:46;49761.64;;;-145.72;39.07
28648;BME280;17137;51.494;-0.262;2022-07-17T02:28:16;49763.12;;;-145.72;38.96
28648;BME280;17137;51.494;-0.262;2022-07-17T02:28:47;49762.62;;;-145.72;38.87
28648;BME280;17137;51.494;-0.262;2022-07-17T02:29:18;49771.00;;;-145.72;39.28
28648;BME280;17137;51.494;-0.262;2022-07-17T02:29:48;49771.13;;;-145.72;39.32
28648;BME280;17137;51.494;-0.262;2022-07-17T02:30:19;49770.51;;;-145.72;39.23
28648;BME280;17137;51.494;-0.262;2022-07-17T02:30:49;49774.70;;;-145.72;39.21
28648;BME280;17137;51.494;-0.262;2022-07-17T02:31:20;49780.86;;;-145.72;39.22
28648;BME280;17137;51.494;-0.262;2022-07-17T02:31:51;49773.35;;;-145.72;39.21
28648;BME280;17137;51.494;-0.262;2022-07-17T02:32:21;49759.17;;;-145.72;39.17
28648;BME280;17137;51.494;-0.262;2022-07-17T02:32:51;49767.06;;;-145.72;39.09
28648;BME280;17137;51.494;-0.262;2022-07-17T02:33:22;49767.18;;;-145.72;39.07
28648;BME280;17137;51.494;-0.262;2022-07-17T02:33:52;49768.66;;;-145.72;39.08
28648;BME280;17137;51.494;-0.262;2022-07-17T02:34:23;49772.85;;;-145.72;39.34
28648;BME280;17137;51.494;-0.262;2022-07-17T02:34:53;49784.19;;;-145.72;39.68
28648;BME280;17137;51.494;-0.262;2022-07-17T02:35:24;49783.08;;;-145.72;39.78
28648;BME280;17137;51.494;-0.262;2022-07-17T02:35:54;49764.47;;;-145.72;39.67
28648;BME280;17137;51.494;-0.262;2022-07-17T02:36:25;49777.04;;;-145.72;39.92
28648;BME280;17137;51.494;-0.262;2022-07-17T02:36:55;49773.35;;;-145.72;40.05
28648;BME280;17137;51.494;-0.262;2022-07-17T02:37:26;49783.21;;;-145.72;40.21
28648;BME280;17137;51.494;-0.262;2022-07-17T02:37:56;49779.26;;;-145.72;40.18
28648;BME280;17137;51.494;-0.262;2022-07-17T02:38:27;49776.67;;;-145.72;40.03
28648;BME280;17137;51.494;-0.262;2022-07-17T02:38:57;49772.24;;;-145.72;40.11
28648;BME280;17137;51.494;-0.262;2022-07-17T02:39:28;49771.37;;;-145.72;40.14
28648;BME280;17137;51.494;-0.262;2022-07-17T02:39:59;49767.31;;;-145.72;40.40
28648;BME280;17137;51.494;-0.262;2022-07-17T02:40:29;49779.51;;;-145.72;40.43
28648;BME280;17137;51.494;-0.262;2022-07-17T02:41:00;49783.82;;;-145.72;40.75
28648;BME280;17137;51.494;-0.262;2022-07-17T02:41:31;49779.26;;;-145.72;40.70
28648;BME280;17137;51.494;-0.262;2022-07-17T02:42:01;49769.90;;;-145.72;40.54
28648;BME280;17137;51.494;-0.262;2022-07-17T02:42:32;49763.49;;;-145.72;40.38